createdAt,value
2023-04-02T00:00:17.588Z,99361.34
2023-04-02T00:03:23.291Z,99368.09
2023-04-02T00:06:34.488Z,99366.66
2023-04-02T00:09:37.910Z,99370.59
2023-04-02T00:12:40.794Z,99377.16
2023-04-02T00:15:46.632Z,99378.28
2023-04-02T00:18:55.589Z,99368.72
2023-04-02T00:21:59.573Z,99373.13
2023-04-02T00:25:08.593Z,99376.59
2023-04-02T00:28:20.674Z,99375.53
2023-04-02T00:31:23.709Z,99361.03
2023-04-02T00:34:28.176Z,99363.16
2023-04-02T00:37:39.135Z,99363.63
2023-04-02T00:40:42.594Z,99361.75
2023-04-02T00:43:54.772Z,99369.19
2023-04-02T00:46:58.539Z,99369.50
2023-04-02T00:50:26.066Z,99370.53
2023-04-02T00:53:30.837Z,99368.13
2023-04-02T00:56:42.768Z,99347.22
2023-04-02T00:59:56.958Z,99357.09
2023-04-02T01:03:18.091Z,99358.72
2023-04-02T01:06:22.320Z,99355.81
2023-04-02T01:09:27.900Z,99347.47
2023-04-02T01:12:46.120Z,99349.13
2023-04-02T01:16:10.051Z,99347.69
2023-04-02T01:19:37.522Z,99362.41
2023-04-02T01:22:48.148Z,99366.44
2023-04-02T01:26:12.628Z,99365.47
2023-04-02T01:29:24.216Z,99370.47
2023-04-02T01:32:29.209Z,99373.03
2023-04-02T01:35:36.705Z,99372.53
2023-04-02T01:38:46.196Z,99366.38
2023-04-02T01:42:02.551Z,99369.22
2023-04-02T01:45:31.399Z,99359.59
2023-04-02T01:48:34.083Z,99371.50
2023-04-02T01:51:42.116Z,99362.19
2023-04-02T01:54:47.550Z,99355.53
2023-04-02T01:57:53.142Z,99371.09
2023-04-02T02:01:09.804Z,99375.09
2023-04-02T02:04:14.096Z,99379.59
2023-04-02T02:07:19.716Z,99371.78
2023-04-02T02:10:30.207Z,99376.28
2023-04-02T02:13:35.479Z,99367.84
2023-04-02T02:16:42.386Z,99369.25
2023-04-02T02:19:51.645Z,99369.44
2023-04-02T02:23:02.185Z,99364.16
2023-04-02T02:26:06.742Z,99357.50
2023-04-02T02:29:12.375Z,99366.13
2023-04-02T02:32:16.738Z,99375.50
2023-04-02T02:35:39.314Z,99372.69
2023-04-02T02:39:09.213Z,99378.78
2023-04-02T02:42:29.011Z,99384.47
2023-04-02T02:45:37.869Z,99370.94
2023-04-02T02:48:42.330Z,99368.81
2023-04-02T02:51:57.784Z,99368.84
2023-04-02T02:55:18.970Z,99377.31
2023-04-02T02:58:32.132Z,99382.38
2023-04-02T03:01:59.360Z,99378.44
2023-04-02T03:05:03.158Z,99384.00
2023-04-02T03:08:12.086Z,99386.66
2023-04-02T03:11:24.127Z,99393.31
2023-04-02T03:14:40.411Z,99387.22
2023-04-02T03:17:57.968Z,99389.31
2023-04-02T03:21:33.095Z,99384.56
2023-04-02T03:24:47.445Z,99384.94
2023-04-02T03:27:54.154Z,99384.47
2023-04-02T03:31:18.282Z,99379.63
2023-04-02T03:34:29.813Z,99377.84
2023-04-02T03:37:45.717Z,99393.78
2023-04-02T03:40:54.659Z,99386.63
2023-04-02T03:44:01.246Z,99387.91
2023-04-02T03:47:32.005Z,99363.66
2023-04-02T03:51:07.998Z,99386.63
2023-04-02T03:54:17.532Z,99386.09
2023-04-02T03:57:38.904Z,99391.88
2023-04-02T04:00:50.396Z,99394.13
2023-04-02T04:04:09.791Z,99384.31
2023-04-02T04:07:40.984Z,99391.47
2023-04-02T04:10:52.957Z,99398.34
2023-04-02T04:14:10.258Z,99394.81
2023-04-02T04:17:17.705Z,99400.22
2023-04-02T04:20:28.246Z,99393.63
2023-04-02T04:23:50.221Z,99394.97
2023-04-02T04:27:18.563Z,99407.66
2023-04-02T04:30:50.434Z,99407.50
2023-04-02T04:34:03.293Z,99414.34
2023-04-02T04:37:10.229Z,99409.34
2023-04-02T04:40:24.539Z,99432.13
2023-04-02T04:43:57.071Z,99433.72
2023-04-02T04:47:12.987Z,99437.72
2023-04-02T04:50:22.968Z,99442.41
2023-04-02T04:53:31.129Z,99436.94
2023-04-02T04:56:35.192Z,99442.28
2023-04-02T05:00:17.493Z,99443.41
2023-04-02T05:03:45.041Z,99461.88
2023-04-02T05:07:19.538Z,99452.28
2023-04-02T05:10:40.674Z,99459.94
2023-04-02T05:13:59.271Z,99465.31
2023-04-02T05:17:11.554Z,99457.28
2023-04-02T05:20:24.984Z,99464.88
2023-04-02T05:23:37.598Z,99448.75
2023-04-02T05:26:46.820Z,99460.09
2023-04-02T05:29:56.210Z,99467.34
2023-04-02T05:33:30.486Z,99455.75
2023-04-02T05:36:37.193Z,99465.81
2023-04-02T05:39:44.518Z,99474.50
2023-04-02T05:42:53.638Z,99473.16
2023-04-02T05:46:02.741Z,99478.47
2023-04-02T05:49:09.072Z,99482.25
2023-04-02T05:52:16.292Z,99483.72
2023-04-02T05:55:34.658Z,99491.59
2023-04-02T05:58:44.054Z,99483.94
2023-04-02T06:02:05.245Z,99491.06
2023-04-02T06:05:27.373Z,99480.81
2023-04-02T06:08:45.827Z,99481.16
2023-04-02T06:12:14.338Z,99497.41
2023-04-02T06:15:21.488Z,99485.38
2023-04-02T06:18:32.897Z,99494.31
2023-04-02T06:21:35.564Z,99494.91
2023-04-02T06:24:40.624Z,99499.81
2023-04-02T06:27:45.720Z,99504.75
2023-04-02T06:30:52.817Z,99490.16
2023-04-02T06:33:56.828Z,99510.13
2023-04-02T06:37:07.686Z,99509.44
2023-04-02T06:40:37.352Z,99505.16
2023-04-02T06:43:56.146Z,99517.56
2023-04-02T06:47:34.405Z,99524.03
2023-04-02T06:50:56.733Z,99526.59
2023-04-02T06:53:59.605Z,99518.34
2023-04-02T06:57:02.591Z,99524.53
2023-04-02T07:00:23.712Z,99519.31
2023-04-02T07:03:30.208Z,99537.00
2023-04-02T07:06:36.389Z,99546.34
2023-04-02T07:09:40.702Z,99544.41
2023-04-02T07:12:45.115Z,99550.75
2023-04-02T07:15:53.909Z,99553.69
2023-04-02T07:19:00.755Z,99559.03
2023-04-02T07:22:06.475Z,99554.78
2023-04-02T07:25:13.961Z,99573.31
2023-04-02T07:28:16.955Z,99556.97
2023-04-02T07:31:25.884Z,99537.53
2023-04-02T07:34:28.682Z,99561.19
2023-04-02T07:37:31.759Z,99544.50
2023-04-02T07:40:34.499Z,99564.19
2023-04-02T07:43:40.744Z,99564.78
2023-04-02T07:46:43.381Z,99559.53
2023-04-02T07:50:10.710Z,99576.53
2023-04-02T07:53:33.915Z,99567.66
2023-04-02T07:56:37.374Z,99585.47
2023-04-02T07:59:42.297Z,99578.81
2023-04-02T08:02:45.590Z,99575.94
2023-04-02T08:05:56.448Z,99585.31
2023-04-02T08:08:59.380Z,99586.75
2023-04-02T08:12:01.982Z,99591.34
2023-04-02T08:15:07.066Z,99575.75
2023-04-02T08:18:10.762Z,99585.50
2023-04-02T08:21:16.355Z,99590.63
2023-04-02T08:24:19.771Z,99595.41
2023-04-02T08:27:28.948Z,99601.88
2023-04-02T08:30:31.607Z,99605.78
2023-04-02T08:33:34.316Z,99600.13
2023-04-02T08:36:38.733Z,99603.38
2023-04-02T08:39:41.688Z,99601.53
2023-04-02T08:42:58.815Z,99605.50
2023-04-02T08:46:04.337Z,99603.59
2023-04-02T08:49:16.725Z,99601.66
2023-04-02T08:52:31.104Z,99603.69
2023-04-02T08:56:05.772Z,99613.72
2023-04-02T08:59:14.677Z,99606.75
2023-04-02T09:02:52.140Z,99611.34
2023-04-02T09:05:55.572Z,99598.81
2023-04-02T09:08:59.110Z,99612.19
2023-04-02T09:12:05.744Z,99614.78
2023-04-02T09:15:11.173Z,99623.25
2023-04-02T09:18:19.236Z,99620.06
2023-04-02T09:21:22.038Z,99624.63
2023-04-02T09:24:24.623Z,99620.13
2023-04-02T09:27:32.687Z,99611.84
2023-04-02T09:31:07.039Z,99623.31
2023-04-02T09:34:32.491Z,99614.03
2023-04-02T09:37:35.118Z,99612.69
2023-04-02T09:40:43.187Z,99624.50
2023-04-02T09:43:45.808Z,99629.03
2023-04-02T09:47:06.466Z,99622.38
2023-04-02T09:50:25.736Z,99641.00
2023-04-02T09:53:30.910Z,99639.19
2023-04-02T09:56:37.025Z,99634.66
2023-04-02T09:59:39.692Z,99641.09
2023-04-02T10:02:43.343Z,99637.91
2023-04-02T10:05:47.519Z,99645.94
2023-04-02T10:08:50.316Z,99640.25
2023-04-02T10:11:54.660Z,99646.19
2023-04-02T10:14:58.391Z,99648.22
2023-04-02T10:18:30.370Z,99659.03
2023-04-02T10:21:35.984Z,99651.78
2023-04-02T10:24:40.391Z,99649.00
2023-04-02T10:28:03.994Z,99654.56
2023-04-02T10:31:39.026Z,99658.22
2023-04-02T10:35:03.664Z,99654.06
2023-04-02T10:38:31.624Z,99649.38
2023-04-02T10:42:17.908Z,99635.59
2023-04-02T10:45:25.648Z,99649.75
2023-04-02T10:48:44.558Z,99646.56
2023-04-02T10:51:59.646Z,99648.94
2023-04-02T10:55:14.393Z,99649.22
2023-04-02T10:58:26.433Z,99647.09
2023-04-02T11:01:32.789Z,99648.44
2023-04-02T11:04:47.093Z,99634.78
2023-04-02T11:08:03.833Z,99637.94
2023-04-02T11:11:27.664Z,99648.91
2023-04-02T11:14:31.906Z,99655.81
2023-04-02T11:17:34.714Z,99644.88
2023-04-02T11:20:50.376Z,99648.56
2023-04-02T11:24:01.759Z,99642.50
2023-04-02T11:27:10.558Z,99656.47
2023-04-02T11:30:16.069Z,99661.56
2023-04-02T11:33:44.593Z,99657.16
2023-04-02T11:36:54.459Z,99645.69
2023-04-02T11:39:59.378Z,99650.75
2023-04-02T11:43:32.947Z,99652.31
2023-04-02T11:46:45.632Z,99651.53
2023-04-02T11:50:06.143Z,99655.09
2023-04-02T11:53:12.099Z,99654.31
2023-04-02T11:56:44.769Z,99663.47
2023-04-02T11:59:51.037Z,99651.06
2023-04-02T12:03:16.493Z,99657.66
2023-04-02T12:06:34.061Z,99646.38
2023-04-02T12:09:45.635Z,99650.84
2023-04-02T12:12:51.555Z,99658.91
2023-04-02T12:15:58.036Z,99644.16
2023-04-02T12:19:01.298Z,99638.78
2023-04-02T12:22:04.036Z,99645.47
2023-04-02T12:25:29.597Z,99640.34
2023-04-02T12:28:34.052Z,99634.56
2023-04-02T12:31:36.849Z,99629.44
2023-04-02T12:34:46.233Z,99628.75
2023-04-02T12:37:53.097Z,99632.31
2023-04-02T12:41:01.504Z,99637.16
2023-04-02T12:44:06.741Z,99633.66
2023-04-02T12:47:13.405Z,99636.59
2023-04-02T12:50:17.333Z,99636.25
2023-04-02T12:53:32.716Z,99641.63
2023-04-02T12:56:35.756Z,99641.72
2023-04-02T12:59:39.273Z,99630.50
2023-04-02T13:02:46.697Z,99629.88
2023-04-02T13:05:57.492Z,99640.34
2023-04-02T13:09:08.280Z,99639.47
2023-04-02T13:12:24.558Z,99632.41
2023-04-02T13:15:34.693Z,99637.44
2023-04-02T13:18:38.513Z,99637.81
2023-04-02T13:21:44.146Z,99643.13
2023-04-02T13:24:49.654Z,99634.84
2023-04-02T13:27:53.929Z,99631.16
2023-04-02T13:30:56.557Z,99638.72
2023-04-02T13:33:59.512Z,99627.44
2023-04-02T13:37:11.250Z,99633.09
2023-04-02T13:40:16.396Z,99633.81
2023-04-02T13:43:23.170Z,99628.00
2023-04-02T13:46:36.420Z,99636.19
2023-04-02T13:49:39.053Z,99642.75
2023-04-02T13:52:41.697Z,99631.50
2023-04-02T13:55:45.479Z,99642.00
2023-04-02T13:58:48.667Z,99628.28
2023-04-02T14:01:53.914Z,99639.94
2023-04-02T14:05:19.636Z,99645.03
2023-04-02T14:08:22.128Z,99653.06
2023-04-02T14:11:37.435Z,99641.19
2023-04-02T14:14:59.477Z,99636.06
2023-04-02T14:18:23.697Z,99648.50
2023-04-02T14:21:54.717Z,99649.69
2023-04-02T14:25:25.604Z,99652.41
2023-04-02T14:28:40.217Z,99649.31
2023-04-02T14:32:15.185Z,99661.22
2023-04-02T14:35:36.447Z,99654.28
2023-04-02T14:39:09.529Z,99659.63
2023-04-02T14:42:18.491Z,99663.06
2023-04-02T14:45:43.199Z,99643.88
2023-04-02T14:49:07.267Z,99649.38
2023-04-02T14:52:17.122Z,99650.22
2023-04-02T14:55:47.307Z,99642.09
2023-04-02T14:58:54.539Z,99637.78
2023-04-02T15:02:04.648Z,99645.50
2023-04-02T15:05:43.784Z,99634.28
2023-04-02T15:09:08.417Z,99624.63
2023-04-02T15:12:28.977Z,99643.75
2023-04-02T15:15:55.936Z,99638.47
2023-04-02T15:19:03.370Z,99631.63
2023-04-02T15:22:17.899Z,99645.81
2023-04-02T15:25:31.919Z,99647.59
2023-04-02T15:29:22.171Z,99647.31
2023-04-02T15:32:34.510Z,99650.84
2023-04-02T15:35:50.659Z,99658.34
2023-04-02T15:39:12.948Z,99657.38
2023-04-02T15:42:35.536Z,99662.56
2023-04-02T15:45:53.421Z,99654.03
2023-04-02T15:49:38.173Z,99664.84
2023-04-02T15:52:55.497Z,99671.66
2023-04-02T15:56:08.744Z,99679.22
2023-04-02T15:59:11.654Z,99673.41
2023-04-02T16:02:48.988Z,99690.19
2023-04-02T16:06:17.278Z,99699.41
2023-04-02T16:09:39.063Z,99685.44
2023-04-02T16:12:42.620Z,99707.22
2023-04-02T16:16:02.366Z,99707.41
2023-04-02T16:19:35.354Z,99704.00
2023-04-02T16:22:49.775Z,99717.00
2023-04-02T16:26:12.973Z,99722.06
2023-04-02T16:29:25.973Z,99718.91
2023-04-02T16:32:56.309Z,99723.47
2023-04-02T16:36:17.820Z,99729.06
2023-04-02T16:39:29.328Z,99738.00
2023-04-02T16:42:45.977Z,99721.34
2023-04-02T16:46:11.928Z,99738.66
2023-04-02T16:49:37.342Z,99755.03
2023-04-02T16:52:53.863Z,99757.56
2023-04-02T16:56:16.889Z,99766.72
2023-04-02T17:00:04.050Z,99770.97
2023-04-02T17:03:37.554Z,99784.84
2023-04-02T17:06:42.754Z,99792.47
2023-04-02T17:09:54.044Z,99789.53
2023-04-02T17:13:19.611Z,99803.22
2023-04-02T17:16:28.036Z,99815.00
2023-04-02T17:19:32.494Z,99801.16
2023-04-02T17:22:36.181Z,99812.94
2023-04-02T17:25:54.276Z,99820.47
2023-04-02T17:29:01.626Z,99819.53
2023-04-02T17:32:06.926Z,99830.75
2023-04-02T17:35:18.859Z,99839.88
2023-04-02T17:38:39.737Z,99844.28
2023-04-02T17:42:16.253Z,99853.59
2023-04-02T17:45:52.429Z,99861.91
2023-04-02T17:49:02.386Z,99872.03
2023-04-02T17:52:30.968Z,99877.31
2023-04-02T17:55:55.230Z,99881.28
2023-04-02T17:59:23.813Z,99887.50
2023-04-02T18:02:45.557Z,99892.16
2023-04-02T18:06:03.252Z,99907.66
2023-04-02T18:09:41.514Z,99910.03
2023-04-02T18:13:22.641Z,99905.38
2023-04-02T18:16:49.519Z,99937.31
2023-04-02T18:20:16.561Z,99937.34
2023-04-02T18:23:48.526Z,99938.34
2023-04-02T18:27:16.397Z,99944.16
2023-04-02T18:30:25.347Z,99961.34
2023-04-02T18:33:51.031Z,99966.06
2023-04-02T18:37:35.250Z,99961.03
2023-04-02T18:40:55.903Z,99977.75
2023-04-02T18:44:24.136Z,99983.88
2023-04-02T18:47:46.667Z,99992.66
2023-04-02T18:50:49.628Z,99983.13
2023-04-02T18:54:12.595Z,99996.56
2023-04-02T18:57:27.428Z,100001.47
2023-04-02T19:00:39.783Z,100004.34
2023-04-02T19:03:55.446Z,100012.28
2023-04-02T19:07:12.432Z,100027.53
2023-04-02T19:10:35.748Z,100027.53
2023-04-02T19:13:39.137Z,100045.41
2023-04-02T19:16:50.691Z,100040.31
2023-04-02T19:19:59.113Z,100047.44
2023-04-02T19:23:26.251Z,100054.91
2023-04-02T19:27:07.709Z,100066.25
2023-04-02T19:30:48.336Z,100082.06
2023-04-02T19:34:03.254Z,100080.03
2023-04-02T19:37:22.120Z,100091.19
2023-04-02T19:40:29.696Z,100095.22
2023-04-02T19:43:32.657Z,100084.63
2023-04-02T19:46:41.242Z,100080.94
2023-04-02T19:49:44.266Z,100095.16
2023-04-02T19:52:47.122Z,100086.59
2023-04-02T19:55:49.828Z,100077.88
2023-04-02T19:58:52.549Z,100078.88
2023-04-02T20:01:55.309Z,100075.81
2023-04-02T20:04:58.141Z,100075.13
2023-04-02T20:08:03.886Z,100105.19
2023-04-02T20:11:12.362Z,100080.00
2023-04-02T20:14:18.049Z,100101.75
2023-04-02T20:17:21.062Z,100114.53
2023-04-02T20:20:23.924Z,100115.50
2023-04-02T20:23:26.561Z,100122.56
2023-04-02T20:26:30.111Z,100130.47
2023-04-02T20:29:33.091Z,100147.50
2023-04-02T20:32:38.475Z,100140.84
2023-04-02T20:35:41.655Z,100142.59
2023-04-02T20:38:45.911Z,100142.31
2023-04-02T20:41:48.577Z,100161.81
2023-04-02T20:44:51.573Z,100160.56
2023-04-02T20:47:54.478Z,100169.47
2023-04-02T20:50:57.622Z,100173.44
2023-04-02T20:54:20.224Z,100161.88
2023-04-02T20:57:27.678Z,100138.44
2023-04-02T21:00:30.362Z,100138.84
2023-04-02T21:03:36.072Z,100162.63
2023-04-02T21:06:40.507Z,100143.44
2023-04-02T21:09:45.855Z,100169.84
2023-04-02T21:12:49.535Z,100163.06
2023-04-02T21:15:52.076Z,100166.84
2023-04-02T21:18:58.573Z,100169.47
2023-04-02T21:22:01.150Z,100170.69
2023-04-02T21:25:03.783Z,100202.53
2023-04-02T21:28:06.584Z,100193.75
2023-04-02T21:31:20.676Z,100161.75
2023-04-02T21:34:23.242Z,100187.06
2023-04-02T21:37:25.849Z,100189.69
2023-04-02T21:40:28.433Z,100183.44
2023-04-02T21:43:30.955Z,100189.34
2023-04-02T21:46:39.190Z,100184.25
2023-04-02T21:49:41.731Z,100178.38
2023-04-02T21:52:46.918Z,100193.34
2023-04-02T21:55:49.545Z,100182.75
2023-04-02T21:58:52.676Z,100201.09
2023-04-02T22:01:55.596Z,100157.72
2023-04-02T22:04:58.308Z,100196.72
2023-04-02T22:08:00.857Z,100196.34
2023-04-02T22:11:12.315Z,100189.22
2023-04-02T22:14:17.568Z,100200.34
2023-04-02T22:17:20.203Z,100221.75
2023-04-02T22:20:22.836Z,100221.19
2023-04-02T22:23:26.816Z,100244.69
2023-04-02T22:26:30.401Z,100212.25
2023-04-02T22:29:34.899Z,100219.06
2023-04-02T22:32:37.581Z,100221.69
2023-04-02T22:35:42.864Z,100233.66
2023-04-02T22:38:45.817Z,100212.25
2023-04-02T22:41:48.341Z,100234.66
2023-04-02T22:44:58.391Z,100218.66
2023-04-02T22:48:06.157Z,100204.22
2023-04-02T22:51:09.832Z,100217.84
2023-04-02T22:54:12.545Z,100210.25
2023-04-02T22:57:15.109Z,100224.13
2023-04-02T23:00:21.539Z,100232.22
2023-04-02T23:03:24.011Z,100230.41
2023-04-02T23:06:27.148Z,100222.28
2023-04-02T23:09:32.121Z,100237.28
2023-04-02T23:12:34.708Z,100235.28
2023-04-02T23:15:37.339Z,100233.84
2023-04-02T23:18:41.352Z,100239.75
2023-04-02T23:21:44.079Z,100242.81
2023-04-02T23:24:46.717Z,100235.28
2023-04-02T23:27:49.308Z,100237.03
2023-04-02T23:30:52.496Z,100230.78
2023-04-02T23:33:55.053Z,100245.97
2023-04-02T23:36:57.663Z,100247.66
2023-04-02T23:40:00.570Z,100232.22
2023-04-02T23:43:03.359Z,100251.94
2023-04-02T23:46:10.080Z,100252.94
2023-04-02T23:49:13.280Z,100241.97
2023-04-02T23:52:16.160Z,100264.69
2023-04-02T23:55:21.903Z,100266.09
2023-04-02T23:58:24.555Z,100252.94
